Time;durP1;ratioP1;P1;durP2;ratioP2;P2;SDS_P1;SDS_P2;PMS_P1;PMS_P2;Temp;Humidity;BMP_temperature;BMP_pressure;BME280_temperature;BME280_humidity;BME280_pressure;Samples;Min_cycle;Max_cycle;Signal;HPM_P1;HPM_P2
2022/01/12 00:00:10;;;;;;;59.60;25.83;;;;;;;;;;5086707;28;20044;-69
2022/01/12 00:02:36;;;;;;;64.72;27.88;;;;;;;;;;5071045;28;20048;-69
2022/01/12 00:05:03;;;;;;;62.13;26.63;;;;;;;;;;5069108;28;20037;-69
2022/01/12 00:07:29;;;;;;;57.53;27.20;;;;;;;;;;5071387;28;20040;-69
2022/01/12 00:09:55;;;;;;;68.80;27.88;;;;;;;;;;5071223;28;20047;-69
2022/01/12 00:12:21;;;;;;;60.80;27.33;;;;;;;;;;5070426;28;20036;-69
2022/01/12 00:14:47;;;;;;;64.82;28.77;;;;;;;;;;5069716;28;20048;-69
2022/01/12 00:17:13;;;;;;;67.05;28.38;;;;;;;;;;5069723;28;20040;-68
2022/01/12 00:19:39;;;;;;;76.25;28.25;;;;;;;;;;5069042;28;20384;-68
2022/01/12 00:22:05;;;;;;;61.65;27.05;;;;;;;;;;5071236;28;20041;-69
2022/01/12 00:25:01;;;;;;;74.63;28.60;;;;;;;;;;5069491;28;20037;-68
2022/01/12 00:33:09;;;;;;;73.55;28.42;;;;;;;;;;5071002;28;20056;-68
2022/01/12 00:35:36;;;;;;;70.35;29.90;;;;;;;;;;5069543;28;20052;-68
2022/01/12 00:38:02;;;;;;;73.75;31.48;;;;;;;;;;5071331;28;20041;-68
2022/01/12 00:40:28;;;;;;;77.78;30.85;;;;;;;;;;5073692;28;20037;-68
2022/01/12 00:42:54;;;;;;;71.70;29.88;;;;;;;;;;5073364;28;20075;-68
2022/01/12 00:45:21;;;;;;;83.43;29.95;;;;;;;;;;5074534;28;20123;-68
2022/01/12 00:47:47;;;;;;;81.30;32.60;;;;;;;;;;5074396;28;20736;-68
2022/01/12 00:50:13;;;;;;;81.45;31.23;;;;;;;;;;5072753;28;20400;-68
2022/01/12 00:52:39;;;;;;;92.65;30.13;;;;;;;;;;5074510;28;20078;-68
2022/01/12 00:55:06;;;;;;;85.43;30.77;;;;;;;;;;5072976;28;20049;-68
2022/01/12 00:57:32;;;;;;;83.32;30.15;;;;;;;;;;5072299;28;20119;-69
2022/01/12 00:59:59;;;;;;;80.68;30.00;;;;;;;;;;5074209;28;20047;-69
2022/01/12 01:02:25;;;;;;;84.45;31.45;;;;;;;;;;5074386;28;20120;-69
2022/01/12 01:04:51;;;;;;;84.85;30.60;;;;;;;;;;5073536;28;20391;-69
2022/01/12 01:07:17;;;;;;;75.35;30.10;;;;;;;;;;5074267;28;20052;-69
2022/01/12 01:09:52;;;;;;;79.47;30.48;;;;;;;;;;5072624;28;20396;-69
2022/01/12 01:12:18;;;;;;;78.25;29.85;;;;;;;;;;5073488;28;20033;-69
2022/01/12 01:15:04;;;;;;;74.53;29.70;;;;;;;;;;5074171;28;20116;-69
2022/01/12 01:25:38;;;;;;;76.78;29.08;;;;;;;;;;5071588;28;20052;-69
2022/01/12 01:28:05;;;;;;;74.68;29.30;;;;;;;;;;5072220;28;20044;-68
2022/01/12 01:30:32;;;;;;;92.13;29.05;;;;;;;;;;5073590;28;20044;-68
2022/01/12 01:33:05;;;;;;;96.93;31.02;;;;;;;;;;5072836;28;20037;-68
2022/01/12 01:35:31;;;;;;;;;;;;;;;;;;5074141;28;20051;-68
2022/01/12 01:38:02;;;;;;;80.47;30.45;;;;;;;;;;5105921;28;20054;-68
2022/01/12 01:40:28;;;;;;;83.28;29.65;;;;;;;;;;5072667;28;20391;-68
2022/01/12 01:43:10;;;;;;;82.97;30.30;;;;;;;;;;5073459;28;20064;-68
2022/01/12 01:53:53;;;;;;;78.38;29.90;;;;;;;;;;5073202;28;20102;-69
2022/01/12 01:56:19;;;;;;;77.75;30.15;;;;;;;;;;5071013;28;20044;-69
2022/01/12 01:58:49;;;;;;;80.78;29.42;;;;;;;;;;5073366;28;20070;-68
2022/01/12 02:01:16;;;;;;;73.30;30.23;;;;;;;;;;5073053;28;20045;-69
2022/01/12 02:03:43;;;;;;;89.25;30.83;;;;;;;;;;5072446;28;20375;-69
2022/01/12 02:06:10;;;;;;;117.65;33.40;;;;;;;;;;5071700;28;20052;-69
2022/01/12 02:08:36;;;;;;;84.47;30.27;;;;;;;;;;5073135;28;20395;-69
2022/01/12 02:11:02;;;;;;;80.93;31.95;;;;;;;;;;5072335;28;20051;-69
2022/01/12 02:13:29;;;;;;;84.20;29.48;;;;;;;;;;5105525;28;20063;-69
2022/01/12 02:15:56;;;;;;;121.47;32.05;;;;;;;;;;5071589;28;20048;-69
2022/01/12 02:35:47;;;;;;;78.88;29.23;;;;;;;;;;5052181;28;20132;-69
2022/01/12 02:40:34;;;;;;;99.57;30.88;;;;;;;;;;5083966;28;20149;-69
2022/01/12 02:53:42;;;;;;;85.85;30.50;;;;;;;;;;5083799;28;20102;-69
2022/01/12 02:56:09;;;;;;;89.10;31.42;;;;;;;;;;5050688;28;20045;-69
2022/01/12 02:58:35;;;;;;;95.35;32.42;;;;;;;;;;5050592;28;20052;-69
2022/01/12 03:01:19;;;;;;;93.03;31.33;;;;;;;;;;5049340;28;20132;-69
2022/01/12 03:03:47;;;;;;;93.93;31.25;;;;;;;;;;5067093;28;20037;-69
2022/01/12 03:06:19;;;;;;;104.43;32.60;;;;;;;;;;5050517;28;20044;-69
2022/01/12 03:08:45;;;;;;;82.82;30.13;;;;;;;;;;5050134;28;20496;-69
2022/01/12 03:11:13;;;;;;;90.65;30.65;;;;;;;;;;5050736;28;20041;-69
2022/01/12 03:13:39;;;;;;;95.65;31.45;;;;;;;;;;5050451;28;20037;-69
2022/01/12 03:16:18;;;;;;;92.25;31.30;;;;;;;;;;5050989;28;20124;-69
2022/01/12 03:18:45;;;;;;;81.93;30.63;;;;;;;;;;5050362;28;20072;-69
2022/01/12 03:21:11;;;;;;;98.35;31.30;;;;;;;;;;5050329;28;20037;-70
2022/01/12 03:23:38;;;;;;;84.28;29.42;;;;;;;;;;5050811;28;20041;-69
2022/01/12 03:26:05;;;;;;;83.18;29.70;;;;;;;;;;5059068;28;20044;-69
2022/01/12 03:28:31;;;;;;;83.85;29.70;;;;;;;;;;5070020;28;20053;-69
2022/01/12 03:31:09;;;;;;;86.35;31.27;;;;;;;;;;5069526;28;20074;-69
2022/01/12 03:39:03;;;;;;;79.75;30.80;;;;;;;;;;5103385;28;20079;-69
2022/01/12 03:41:32;;;;;;;101.25;30.13;;;;;;;;;;5071622;28;20443;-69
2022/01/12 03:43:59;;;;;;;89.35;30.50;;;;;;;;;;5069879;28;20450;-69
2022/01/12 03:46:28;;;;;;;84.22;29.48;;;;;;;;;;5069401;28;20037;-69
2022/01/12 03:48:54;;;;;;;84.55;30.48;;;;;;;;;;5071510;28;20048;-69
2022/01/12 03:51:21;;;;;;;88.47;29.80;;;;;;;;;;5069759;28;20072;-69
2022/01/12 03:53:47;;;;;;;87.60;30.15;;;;;;;;;;5069264;28;20098;-69
2022/01/12 03:56:13;;;;;;;81.85;28.80;;;;;;;;;;5069998;28;20139;-69
2022/01/12 03:58:39;;;;;;;91.68;31.73;;;;;;;;;;5071315;28;20044;-69
2022/01/12 04:01:05;;;;;;;84.72;30.45;;;;;;;;;;5068990;28;20037;-69
2022/01/12 04:03:37;;;;;;;91.20;31.80;;;;;;;;;;5069561;28;20037;-69
2022/01/12 04:08:48;;;;;;;84.47;29.38;;;;;;;;;;5102998;28;20102;-69
2022/01/12 04:11:14;;;;;;;84.75;29.52;;;;;;;;;;5070162;28;20063;-70
2022/01/12 04:13:42;;;;;;;78.78;28.55;;;;;;;;;;5073700;28;20040;-69
2022/01/12 04:16:08;;;;;;;90.20;29.23;;;;;;;;;;5074263;28;20051;-69
2022/01/12 04:18:34;;;;;;;75.97;28.60;;;;;;;;;;5073617;28;20082;-69
2022/01/12 04:21:03;;;;;;;85.18;29.77;;;;;;;;;;5073527;28;20052;-69
2022/01/12 04:23:30;;;;;;;80.60;28.48;;;;;;;;;;5073847;28;20041;-69
2022/01/12 04:26:00;;;;;;;82.88;29.17;;;;;;;;;;5073206;28;20052;-69
2022/01/12 04:28:27;;;;;;;80.10;28.38;;;;;;;;;;5073358;28;20064;-69
2022/01/12 04:30:54;;;;;;;74.85;28.00;;;;;;;;;;5072782;28;20040;-69
2022/01/12 04:33:20;;;;;;;78.93;28.45;;;;;;;;;;5056757;28;20117;-69
2022/01/12 04:35:52;;;;;;;86.97;28.33;;;;;;;;;;5073250;28;20054;-69
2022/01/12 04:38:19;;;;;;;84.13;30.50;;;;;;;;;;5072855;28;20063;-69
2022/01/12 04:40:45;;;;;;;79.47;27.25;;;;;;;;;;5073212;28;20075;-69
2022/01/12 04:43:13;;;;;;;81.00;28.58;;;;;;;;;;5073172;28;20037;-69
2022/01/12 04:50:46;;;;;;;73.70;25.98;;;;;;;;;;5073287;28;20111;-70
2022/01/12 04:53:13;;;;;;;65.70;24.73;;;;;;;;;;5073906;28;20127;-69
2022/01/12 04:55:39;;;;;;;71.32;26.67;;;;;;;;;;5073194;28;20067;-69
2022/01/12 04:58:06;;;;;;;71.38;26.45;;;;;;;;;;5072893;28;20131;-69
2022/01/12 05:00:33;;;;;;;73.90;25.70;;;;;;;;;;5072190;28;20539;-69
2022/01/12 05:13:41;;;;;;;55.65;22.92;;;;;;;;;;5072616;28;20098;-69
2022/01/12 05:16:10;;;;;;;58.42;22.35;;;;;;;;;;5071795;28;20051;-69
2022/01/12 05:18:36;;;;;;;53.10;21.23;;;;;;;;;;5072348;28;20056;-69
2022/01/12 05:21:03;;;;;;;70.55;23.52;;;;;;;;;;5073669;28;20045;-69
2022/01/12 05:23:29;;;;;;;57.53;23.85;;;;;;;;;;5070599;28;20040;-70
2022/01/12 05:25:55;;;;;;;64.88;24.05;;;;;;;;;;5072302;28;20633;-69
2022/01/12 05:28:22;;;;;;;53.92;21.05;;;;;;;;;;5072119;28;20041;-69
2022/01/12 05:30:48;;;;;;;53.33;21.58;;;;;;;;;;5071406;28;20036;-69
2022/01/12 05:33:15;;;;;;;48.78;19.60;;;;;;;;;;5072370;28;20533;-69
2022/01/12 05:35:42;;;;;;;42.38;17.75;;;;;;;;;;5072287;28;20040;-69
2022/01/12 05:38:10;;;;;;;46.13;19.98;;;;;;;;;;5071444;28;20056;-69
2022/01/12 05:40:37;;;;;;;45.05;19.08;;;;;;;;;;5071949;28;20599;-69
2022/01/12 05:43:03;;;;;;;44.22;18.58;;;;;;;;;;5072193;28;20036;-69
2022/01/12 05:45:32;;;;;;;38.92;17.42;;;;;;;;;;5087959;28;20047;-69
2022/01/12 05:50:26;;;;;;;38.95;16.48;;;;;;;;;;5073262;28;20040;-69
2022/01/12 05:52:52;;;;;;;38.13;16.75;;;;;;;;;;5071134;28;20040;-69
2022/01/12 05:55:19;;;;;;;40.92;16.55;;;;;;;;;;5071721;28;20041;-69
2022/01/12 05:57:45;;;;;;;36.70;16.58;;;;;;;;;;5071797;28;20048;-69
2022/01/12 06:00:12;;;;;;;38.60;17.23;;;;;;;;;;5070991;28;20044;-69
2022/01/12 06:02:39;;;;;;;40.00;17.75;;;;;;;;;;5072829;28;20121;-69
2022/01/12 06:05:05;;;;;;;37.15;16.75;;;;;;;;;;5071415;28;20041;-69
2022/01/12 06:07:31;;;;;;;56.30;20.90;;;;;;;;;;5070758;28;20433;-69
2022/01/12 06:09:57;;;;;;;64.60;19.83;;;;;;;;;;5071633;28;20479;-69
2022/01/12 06:12:23;;;;;;;77.40;19.23;;;;;;;;;;5071040;28;20060;-69
2022/01/12 06:14:49;;;;;;;61.83;19.20;;;;;;;;;;5070665;28;20044;-69
2022/01/12 06:17:15;;;;;;;50.70;19.65;;;;;;;;;;5071062;28;20368;-70
2022/01/12 06:19:41;;;;;;;53.10;17.70;;;;;;;;;;5071267;28;20402;-69
2022/01/12 06:22:07;;;;;;;220.25;25.58;;;;;;;;;;5070394;28;20060;-69
2022/01/12 06:24:33;;;;;;;60.83;19.67;;;;;;;;;;5071058;28;20075;-69
2022/01/12 06:27:00;;;;;;;89.82;20.00;;;;;;;;;;5055652;28;20053;-69
2022/01/12 06:29:39;;;;;;;83.88;18.20;;;;;;;;;;5050102;28;20049;-70
2022/01/12 06:32:05;;;;;;;222.65;25.42;;;;;;;;;;5052535;28;20052;-69
2022/01/12 06:34:32;;;;;;;113.45;21.75;;;;;;;;;;5052475;28;20122;-69
2022/01/12 06:36:58;;;;;;;118.00;20.40;;;;;;;;;;5050282;28;20048;-70
2022/01/12 06:39:25;;;;;;;148.52;21.73;;;;;;;;;;5050930;28;20036;-69
2022/01/12 06:41:52;;;;;;;135.73;21.83;;;;;;;;;;5084315;28;20045;-69
2022/01/12 06:44:20;;;;;;;97.88;17.70;;;;;;;;;;5051109;28;20395;-69
2022/01/12 06:46:47;;;;;;;67.22;16.92;;;;;;;;;;5050650;28;20048;-69
2022/01/12 06:49:13;;;;;;;154.23;19.05;;;;;;;;;;5050731;28;20126;-69
2022/01/12 06:51:40;;;;;;;140.60;18.27;;;;;;;;;;5062120;28;20394;-69
2022/01/12 06:54:06;;;;;;;52.72;15.50;;;;;;;;;;5071439;28;20506;-69
2022/01/12 06:56:32;;;;;;;89.47;16.27;;;;;;;;;;5069736;28;20044;-69
2022/01/12 06:58:58;;;;;;;37.60;14.23;;;;;;;;;;5069226;28;20048;-69
2022/01/12 07:01:24;;;;;;;99.20;17.20;;;;;;;;;;5071239;28;20080;-68
2022/01/12 07:03:50;;;;;;;65.45;15.88;;;;;;;;;;5069753;28;20043;-69
2022/01/12 07:06:18;;;;;;;37.25;14.98;;;;;;;;;;5069508;28;20040;-69
2022/01/12 07:08:44;;;;;;;48.58;14.90;;;;;;;;;;5070104;28;20036;-69
2022/01/12 07:11:10;;;;;;;37.03;14.48;;;;;;;;;;5071167;28;20044;-70
2022/01/12 07:13:36;;;;;;;27.10;13.90;;;;;;;;;;5069508;28;20084;-69
2022/01/12 07:16:03;;;;;;;25.70;13.63;;;;;;;;;;5069903;28;20071;-69
2022/01/12 07:18:29;;;;;;;36.08;15.40;;;;;;;;;;5069885;28;20608;-66
2022/01/12 07:20:59;;;;;;;34.63;14.93;;;;;;;;;;5069504;28;20043;-69
2022/01/12 07:23:25;;;;;;;49.70;16.60;;;;;;;;;;5069932;28;20421;-69
2022/01/12 07:25:51;;;;;;;45.33;16.08;;;;;;;;;;5069570;28;20052;-69
2022/01/12 07:28:17;;;;;;;42.97;15.98;;;;;;;;;;5068968;28;20399;-69
2022/01/12 07:30:43;;;;;;;43.28;15.32;;;;;;;;;;5064361;28;20048;-69
2022/01/12 07:33:09;;;;;;;67.38;16.10;;;;;;;;;;5068646;28;20041;-70
2022/01/12 07:35:36;;;;;;;89.03;17.38;;;;;;;;;;5051333;28;20513;-68
2022/01/12 07:38:02;;;;;;;54.60;17.20;;;;;;;;;;5051735;28;20048;-69
2022/01/12 07:40:29;;;;;;;45.85;16.48;;;;;;;;;;5047268;28;20044;-69
2022/01/12 07:42:55;;;;;;;60.10;18.08;;;;;;;;;;5067966;28;20094;-69
2022/01/12 07:45:22;;;;;;;57.10;16.48;;;;;;;;;;5069182;28;20041;-70
2022/01/12 07:47:48;;;;;;;62.88;16.98;;;;;;;;;;5057544;28;20131;-69
2022/01/12 07:50:14;;;;;;;34.03;16.17;;;;;;;;;;5074397;28;20055;-70
2022/01/12 07:52:41;;;;;;;36.10;15.77;;;;;;;;;;5075119;28;20055;-69
2022/01/12 07:55:07;;;;;;;40.25;15.15;;;;;;;;;;5075710;28;20514;-69
2022/01/12 07:57:33;;;;;;;38.53;15.43;;;;;;;;;;5074941;28;20040;-69
2022/01/12 08:00:00;;;;;;;38.72;17.35;;;;;;;;;;5075317;28;20075;-69
2022/01/12 08:02:26;;;;;;;41.70;15.65;;;;;;;;;;5074745;28;20068;-69
2022/01/12 08:04:52;;;;;;;35.10;16.15;;;;;;;;;;5074454;28;20094;-69
2022/01/12 08:07:18;;;;;;;42.40;16.38;;;;;;;;;;5075379;28;20044;-69
2022/01/12 08:09:45;;;;;;;46.33;18.15;;;;;;;;;;5070439;28;20426;-70
2022/01/12 08:12:11;;;;;;;44.47;17.60;;;;;;;;;;5073305;28;20048;-69
2022/01/12 08:14:37;;;;;;;44.75;16.45;;;;;;;;;;5075640;28;20082;-68
2022/01/12 08:17:03;;;;;;;44.30;16.98;;;;;;;;;;5073434;28;20072;-68
2022/01/12 08:19:33;;;;;;;46.15;17.15;;;;;;;;;;5074418;28;20044;-67
2022/01/12 08:22:00;;;;;;;49.78;16.88;;;;;;;;;;5074379;28;20076;-70
2022/01/12 08:24:26;;;;;;;45.28;16.88;;;;;;;;;;5075073;28;20040;-70
2022/01/12 08:26:52;;;;;;;39.45;17.00;;;;;;;;;;5073868;28;20092;-68
2022/01/12 08:29:18;;;;;;;44.47;16.27;;;;;;;;;;5074771;28;20055;-68
2022/01/12 08:31:45;;;;;;;44.67;16.65;;;;;;;;;;5076478;28;20040;-67
2022/01/12 08:34:11;;;;;;;48.92;16.63;;;;;;;;;;5057103;28;20036;-68
2022/01/12 08:36:39;;;;;;;39.25;16.00;;;;;;;;;;5049917;28;20058;-69
2022/01/12 08:39:08;;;;;;;42.60;15.43;;;;;;;;;;5074890;28;20103;-70
2022/01/12 08:41:34;;;;;;;48.28;17.45;;;;;;;;;;5073581;28;20042;-71
2022/01/12 08:44:00;;;;;;;52.92;17.33;;;;;;;;;;5057228;28;20039;-70
2022/01/12 08:46:26;;;;;;;43.95;17.40;;;;;;;;;;5074472;28;20083;-70
2022/01/12 08:48:52;;;;;;;48.28;16.77;;;;;;;;;;5073557;28;20040;-70
2022/01/12 08:51:19;;;;;;;45.00;15.85;;;;;;;;;;5057442;28;20119;-69
2022/01/12 08:53:45;;;;;;;52.70;18.00;;;;;;;;;;5074622;28;20048;-69
2022/01/12 08:56:11;;;;;;;53.53;16.13;;;;;;;;;;5074472;28;20586;-69
2022/01/12 08:58:37;;;;;;;47.53;16.15;;;;;;;;;;5071175;28;20051;-69
2022/01/12 09:01:04;;;;;;;57.45;16.85;;;;;;;;;;5053572;28;20087;-69
2022/01/12 09:03:31;;;;;;;49.97;15.10;;;;;;;;;;5054707;28;20443;-69
2022/01/12 09:05:57;;;;;;;49.63;15.50;;;;;;;;;;5070538;28;20072;-69
2022/01/12 09:08:23;;;;;;;44.53;15.43;;;;;;;;;;5071843;28;20090;-69
2022/01/12 09:10:50;;;;;;;42.53;15.13;;;;;;;;;;5070895;28;20048;-69
2022/01/12 09:13:16;;;;;;;42.15;15.60;;;;;;;;;;5070783;28;20673;-69
2022/01/12 09:15:42;;;;;;;42.42;13.73;;;;;;;;;;5071127;28;20044;-69
2022/01/12 09:18:08;;;;;;;43.95;14.45;;;;;;;;;;5054060;28;20123;-69
2022/01/12 09:20:34;;;;;;;43.45;14.55;;;;;;;;;;5067329;28;20063;-69
2022/01/12 09:23:00;;;;;;;39.58;14.85;;;;;;;;;;5070853;28;20045;-71
2022/01/12 09:25:26;;;;;;;43.90;14.57;;;;;;;;;;5071103;28;20075;-70
2022/01/12 09:27:53;;;;;;;38.75;13.95;;;;;;;;;;5070048;28;20053;-69
2022/01/12 09:30:20;;;;;;;40.40;15.90;;;;;;;;;;5069843;28;20049;-70
2022/01/12 09:32:46;;;;;;;41.88;14.02;;;;;;;;;;5070295;28;20048;-69
2022/01/12 09:35:12;;;;;;;44.75;14.60;;;;;;;;;;5064331;28;20041;-69
2022/01/12 09:37:39;;;;;;;49.42;16.23;;;;;;;;;;5070064;28;20507;-70
2022/01/12 09:40:05;;;;;;;39.65;15.85;;;;;;;;;;5071005;28;20064;-71
2022/01/12 09:42:32;;;;;;;32.50;13.05;;;;;;;;;;5069802;28;20041;-69
2022/01/12 09:44:58;;;;;;;36.03;12.38;;;;;;;;;;5053120;28;20040;-71
2022/01/12 09:47:24;;;;;;;34.67;12.40;;;;;;;;;;5069383;28;20072;-69
2022/01/12 09:49:50;;;;;;;30.25;12.02;;;;;;;;;;5047711;28;20037;-70
2022/01/12 09:52:16;;;;;;;26.13;11.38;;;;;;;;;;5069937;28;20758;-70
2022/01/12 09:54:43;;;;;;;25.90;10.52;;;;;;;;;;5053710;28;20040;-70
2022/01/12 09:57:09;;;;;;;24.45;10.32;;;;;;;;;;5068729;28;20096;-69
2022/01/12 09:59:36;;;;;;;33.78;11.55;;;;;;;;;;5069505;28;20495;-71
2022/01/12 10:02:03;;;;;;;27.15;11.65;;;;;;;;;;5070345;28;20045;-75
2022/01/12 10:04:30;;;;;;;29.58;12.23;;;;;;;;;;5068345;28;20032;-70
2022/01/12 10:07:03;;;;;;;37.63;11.77;;;;;;;;;;5105021;28;20135;-70
2022/01/12 10:09:34;;;;;;;32.88;12.00;;;;;;;;;;5102798;28;20032;-71
2022/01/12 10:12:01;;;;;;;35.35;12.07;;;;;;;;;;5069282;28;20501;-70
2022/01/12 10:14:42;;;;;;;28.10;11.95;;;;;;;;;;5070050;28;20044;-70
2022/01/12 10:17:09;;;;;;;32.22;11.98;;;;;;;;;;5069908;28;20602;-70
2022/01/12 10:19:35;;;;;;;31.35;12.13;;;;;;;;;;5069718;28;20040;-69
2022/01/12 10:22:02;;;;;;;37.20;12.38;;;;;;;;;;5052502;28;20071;-71
2022/01/12 10:24:28;;;;;;;34.45;11.40;;;;;;;;;;5070383;28;20044;-69
2022/01/12 10:26:55;;;;;;;33.75;11.75;;;;;;;;;;5051667;28;20186;-70
2022/01/12 10:29:26;;;;;;;33.72;12.02;;;;;;;;;;5063411;28;20043;-70
2022/01/12 10:32:02;;;;;;;33.00;11.82;;;;;;;;;;5069189;28;20065;-69
2022/01/12 10:34:49;;;;;;;53.47;11.23;;;;;;;;;;5069307;28;20045;-70
2022/01/12 10:37:22;;;;;;;45.03;11.30;;;;;;;;;;5069316;28;20055;-70
2022/01/12 10:39:49;;;;;;;32.15;10.48;;;;;;;;;;5068701;28;20079;-70
2022/01/12 10:42:23;;;;;;;40.08;10.80;;;;;;;;;;5069467;28;20040;-70
2022/01/12 10:44:51;;;;;;;44.78;10.93;;;;;;;;;;5068782;28;20119;-70
2022/01/12 10:47:21;;;;;;;43.83;10.63;;;;;;;;;;5069174;28;20044;-70
2022/01/12 10:50:06;;;;;;;42.88;10.32;;;;;;;;;;5069511;28;20076;-70
2022/01/12 10:52:40;;;;;;;38.42;10.15;;;;;;;;;;5068991;28;20163;-70
2022/01/12 10:55:07;;;;;;;53.38;10.23;;;;;;;;;;5052163;28;20078;-70
2022/01/12 10:57:35;;;;;;;37.25;9.80;;;;;;;;;;5068293;28;20040;-70
2022/01/12 11:00:01;;;;;;;39.10;9.32;;;;;;;;;;5069689;28;20036;-70
2022/01/12 11:02:31;;;;;;;41.33;9.55;;;;;;;;;;5050049;28;20113;-69
2022/01/12 11:04:58;;;;;;;37.05;8.13;;;;;;;;;;5067126;28;20052;-71
2022/01/12 11:07:27;;;;;;;44.08;9.25;;;;;;;;;;5063858;28;20036;-69
2022/01/12 11:09:56;;;;;;;43.38;9.05;;;;;;;;;;5067186;28;20059;-70
2022/01/12 11:12:22;;;;;;;37.08;8.73;;;;;;;;;;5053399;28;20045;-69
2022/01/12 11:14:48;;;;;;;37.85;8.93;;;;;;;;;;5067807;28;20121;-69
2022/01/12 11:17:15;;;;;;;49.28;10.55;;;;;;;;;;5067812;28;20044;-70
2022/01/12 11:19:45;;;;;;;31.58;8.38;;;;;;;;;;5068174;28;20041;-69
2022/01/12 11:22:21;;;;;;;30.52;6.93;;;;;;;;;;5067577;28;20040;-69
2022/01/12 11:24:47;;;;;;;27.95;6.88;;;;;;;;;;5068276;28;20453;-70
2022/01/12 11:27:20;;;;;;;25.80;7.30;;;;;;;;;;5068216;28;20703;-68
2022/01/12 11:29:46;;;;;;;25.52;6.82;;;;;;;;;;5069186;28;20044;-69
2022/01/12 11:32:13;;;;;;;38.85;8.27;;;;;;;;;;5067246;28;20457;-69
2022/01/12 11:34:40;;;;;;;41.28;7.45;;;;;;;;;;5069980;28;20113;-69
2022/01/12 11:37:13;;;;;;;44.95;7.85;;;;;;;;;;5068470;28;20041;-69
2022/01/12 11:39:39;;;;;;;43.80;8.50;;;;;;;;;;5068467;28;20399;-69
2022/01/12 11:42:05;;;;;;;27.25;7.40;;;;;;;;;;5068428;28;20045;-69
2022/01/12 11:44:35;;;;;;;36.38;7.70;;;;;;;;;;5068755;28;20048;-69
2022/01/12 11:47:03;;;;;;;32.63;7.18;;;;;;;;;;5059800;28;20090;-69
2022/01/12 11:49:52;;;;;;;31.80;7.55;;;;;;;;;;5068656;28;20535;-69
2022/01/12 11:52:22;;;;;;;39.75;8.93;;;;;;;;;;5069142;28;20395;-70
2022/01/12 11:54:51;;;;;;;35.28;8.48;;;;;;;;;;5067839;28;20043;-70
2022/01/12 11:57:19;;;;;;;25.83;7.38;;;;;;;;;;5068330;28;20079;-69
2022/01/12 11:59:51;;;;;;;20.35;7.07;;;;;;;;;;5060734;28;20076;-70
2022/01/12 12:02:19;;;;;;;32.85;8.35;;;;;;;;;;5049638;28;20487;-71
2022/01/12 12:04:59;;;;;;;32.55;7.60;;;;;;;;;;5051906;28;20036;-69
2022/01/12 12:07:26;;;;;;;26.02;7.10;;;;;;;;;;5062728;28;20063;-71
2022/01/12 12:09:57;;;;;;;27.52;8.27;;;;;;;;;;5066823;28;20401;-70
2022/01/12 12:12:36;;;;;;;28.08;7.70;;;;;;;;;;5067704;28;20048;-68
2022/01/12 12:15:04;;;;;;;28.13;7.68;;;;;;;;;;5065113;28;20398;-68
2022/01/12 12:17:31;;;;;;;27.35;6.88;;;;;;;;;;5066488;28;20105;-68
2022/01/12 12:19:58;;;;;;;21.25;7.25;;;;;;;;;;5064180;28;20072;-68
2022/01/12 12:22:27;;;;;;;27.52;8.43;;;;;;;;;;5050246;28;20098;-68
2022/01/12 12:24:55;;;;;;;26.75;8.32;;;;;;;;;;5066508;28;20036;-68
2022/01/12 12:27:22;;;;;;;23.77;8.02;;;;;;;;;;5047133;28;20057;-69
2022/01/12 12:29:49;;;;;;;31.05;9.23;;;;;;;;;;5045992;28;20048;-69
2022/01/12 12:32:19;;;;;;;32.83;8.73;;;;;;;;;;5031089;28;20048;-68
2022/01/12 12:34:46;;;;;;;24.88;8.02;;;;;;;;;;5050856;28;20457;-69
2022/01/12 12:37:15;;;;;;;26.35;8.80;;;;;;;;;;5051022;28;20048;-68
2022/01/12 12:39:42;;;;;;;24.73;8.32;;;;;;;;;;5049400;28;20152;-69
2022/01/12 12:42:19;;;;;;;27.92;8.68;;;;;;;;;;5050656;28;20091;-69
2022/01/12 12:44:45;;;;;;;30.42;8.80;;;;;;;;;;5050873;28;20397;-68
2022/01/12 12:47:16;;;;;;;23.67;8.35;;;;;;;;;;5050227;28;20048;-69
2022/01/12 12:49:53;;;;;;;24.70;9.43;;;;;;;;;;5050716;28;20051;-69
2022/01/12 12:52:22;;;;;;;21.65;8.25;;;;;;;;;;5050190;28;20073;-68
2022/01/12 12:54:48;;;;;;;27.17;9.23;;;;;;;;;;5052289;28;20360;-68
2022/01/12 12:57:20;;;;;;;32.05;9.95;;;;;;;;;;5051108;28;20041;-67
2022/01/12 12:59:47;;;;;;;28.88;9.73;;;;;;;;;;5044777;28;20134;-69
2022/01/12 13:02:13;;;;;;;35.13;11.63;;;;;;;;;;5033414;28;20045;-68
2022/01/12 13:04:40;;;;;;;38.90;9.95;;;;;;;;;;5050725;28;20044;-68
2022/01/12 13:07:13;;;;;;;31.17;8.52;;;;;;;;;;5050999;28;20116;-69
2022/01/12 13:09:39;;;;;;;19.58;8.48;;;;;;;;;;5049047;28;20549;-69
2022/01/12 13:12:05;;;;;;;23.75;8.73;;;;;;;;;;5051001;28;20672;-68
2022/01/12 13:14:41;;;;;;;72.60;9.40;;;;;;;;;;5050262;28;20060;-68
2022/01/12 13:17:07;;;;;;;54.95;9.40;;;;;;;;;;5049702;28;20438;-68
2022/01/12 13:22:34;;;;;;;46.28;8.50;;;;;;;;;;5039277;28;20095;-67
2022/01/12 13:25:01;;;;;;;24.70;8.43;;;;;;;;;;5050615;28;20120;-68
2022/01/12 13:27:28;;;;;;;39.30;8.70;;;;;;;;;;5069799;28;20060;-68
2022/01/12 13:29:54;;;;;;;29.95;8.27;;;;;;;;;;5070253;28;20107;-68
2022/01/12 13:32:20;;;;;;;67.82;9.25;;;;;;;;;;5069262;28;20040;-68
2022/01/12 13:35:00;;;;;;;45.92;10.43;;;;;;;;;;5071134;28;20037;-68
2022/01/12 13:37:26;;;;;;;21.85;9.13;;;;;;;;;;5068742;28;20054;-69
2022/01/12 13:40:04;;;;;;;36.67;9.52;;;;;;;;;;5052311;28;20086;-69
2022/01/12 13:42:31;;;;;;;24.25;8.25;;;;;;;;;;5071560;28;20048;-68
2022/01/12 13:45:09;;;;;;;25.83;9.77;;;;;;;;;;5065962;28;20048;-67
2022/01/12 13:47:37;;;;;;;34.05;8.88;;;;;;;;;;5050277;28;20442;-66
2022/01/12 13:50:04;;;;;;;25.33;8.93;;;;;;;;;;5100477;28;20074;-67
2022/01/12 13:52:30;;;;;;;23.48;9.52;;;;;;;;;;5069853;28;20049;-68
2022/01/12 13:55:07;;;;;;;21.80;8.80;;;;;;;;;;5069620;28;20530;-68
2022/01/12 13:57:33;;;;;;;25.38;9.18;;;;;;;;;;5069325;28;20113;-68
2022/01/12 13:59:59;;;;;;;22.88;8.52;;;;;;;;;;5052621;28;20055;-69
2022/01/12 14:02:28;;;;;;;21.02;9.35;;;;;;;;;;5068856;28;20123;-69
2022/01/12 14:05:06;;;;;;;25.15;8.90;;;;;;;;;;5069699;28;20094;-68
2022/01/12 14:07:37;;;;;;;27.58;8.90;;;;;;;;;;5068362;28;20048;-67
2022/01/12 14:10:05;;;;;;;24.15;9.63;;;;;;;;;;5071240;28;20043;-69
2022/01/12 14:12:32;;;;;;;21.83;7.90;;;;;;;;;;5069137;28;20127;-68
2022/01/12 14:14:59;;;;;;;17.95;8.15;;;;;;;;;;5069175;28;20048;-68
2022/01/12 14:17:30;;;;;;;21.88;7.82;;;;;;;;;;5068977;28;20041;-68
2022/01/12 14:19:58;;;;;;;20.10;8.63;;;;;;;;;;5069976;28;20159;-67
2022/01/12 14:22:24;;;;;;;23.50;8.23;;;;;;;;;;5067552;28;20068;-68
2022/01/12 14:24:58;;;;;;;20.80;7.88;;;;;;;;;;5070724;28;20378;-68
2022/01/12 14:27:24;;;;;;;22.10;8.32;;;;;;;;;;5069517;28;20088;-68
2022/01/12 14:29:50;;;;;;;25.60;9.38;;;;;;;;;;5058768;28;20060;-67
2022/01/12 14:32:17;;;;;;;23.80;10.13;;;;;;;;;;5069310;28;20067;-68
2022/01/12 14:34:43;;;;;;;23.52;8.48;;;;;;;;;;5067967;28;20048;-68
2022/01/12 14:37:09;;;;;;;24.20;8.45;;;;;;;;;;5068522;28;20120;-66
2022/01/12 14:39:36;;;;;;;20.42;8.25;;;;;;;;;;5069215;28;20394;-65
2022/01/12 14:42:02;;;;;;;26.95;8.70;;;;;;;;;;5069284;28;20044;-70
2022/01/12 14:44:32;;;;;;;23.38;8.27;;;;;;;;;;5050879;28;20040;-67
2022/01/12 14:46:59;;;;;;;29.33;8.57;;;;;;;;;;5070761;28;20040;-69
2022/01/12 14:49:25;;;;;;;33.90;9.60;;;;;;;;;;5069827;28;20041;-72
2022/01/12 14:51:51;;;;;;;26.30;10.55;;;;;;;;;;5069394;28;20063;-69
2022/01/12 14:54:17;;;;;;;34.45;11.25;;;;;;;;;;5069843;28;20052;-71
2022/01/12 14:56:43;;;;;;;28.77;11.13;;;;;;;;;;5052424;28;20048;-71
2022/01/12 14:59:09;;;;;;;34.03;11.35;;;;;;;;;;5064988;28;20048;-70
2022/01/12 15:01:36;;;;;;;26.95;10.50;;;;;;;;;;5053010;28;20040;-70
2022/01/12 15:04:02;;;;;;;30.63;11.15;;;;;;;;;;5050676;28;20041;-71
2022/01/12 15:06:28;;;;;;;31.63;11.13;;;;;;;;;;5056430;28;20472;-71
2022/01/12 15:08:54;;;;;;;28.85;10.60;;;;;;;;;;5070315;28;20040;-71
2022/01/12 15:11:20;;;;;;;32.25;11.23;;;;;;;;;;5070346;28;20498;-71
2022/01/12 15:13:59;;;;;;;26.65;10.68;;;;;;;;;;5069607;28;20493;-71
2022/01/12 15:16:25;;;;;;;33.00;9.68;;;;;;;;;;5070340;28;20048;-71
2022/01/12 15:18:51;;;;;;;31.23;10.05;;;;;;;;;;5069812;28;20036;-71
2022/01/12 15:21:17;;;;;;;35.75;11.32;;;;;;;;;;5068939;28;20044;-70
2022/01/12 15:23:44;;;;;;;23.98;9.85;;;;;;;;;;5070018;28;20044;-70
2022/01/12 15:26:10;;;;;;;29.00;9.90;;;;;;;;;;5069762;28;20044;-71
2022/01/12 15:28:36;;;;;;;27.70;10.52;;;;;;;;;;5052529;28;20082;-70
2022/01/12 15:31:02;;;;;;;30.17;11.18;;;;;;;;;;5069855;28;20036;-70
2022/01/12 15:33:29;;;;;;;25.27;9.55;;;;;;;;;;5070075;28;20498;-70
2022/01/12 15:35:55;;;;;;;29.75;10.07;;;;;;;;;;5069594;28;20044;-70
2022/01/12 15:38:21;;;;;;;28.73;10.60;;;;;;;;;;5069785;28;20044;-70
2022/01/12 15:40:47;;;;;;;31.35;9.95;;;;;;;;;;5069941;28;20057;-70
2022/01/12 15:43:13;;;;;;;29.27;10.23;;;;;;;;;;5052933;28;20040;-70
2022/01/12 15:45:40;;;;;;;26.80;10.05;;;;;;;;;;5052758;28;20339;-71